sensor_id;sensor_type;location;lat;lon;timestamp;P1;P2;P0
60816;PMS5003;51921;51.518;-3.188;2023-08-06T00:00:25;4;3;
60816;PMS5003;51921;51.518;-3.188;2023-08-06T00:02:50;3;3;
60816;PMS5003;51921;51.518;-3.188;2023-08-06T00:05:16;5;4;
60816;PMS5003;51921;51.518;-3.188;2023-08-06T00:07:41;4;4;
60816;PMS5003;51921;51.518;-3.188;2023-08-06T00:10:07;2;2;
60816;PMS5003;51921;51.518;-3.188;2023-08-06T00:12:32;4;4;
60816;PMS5003;51921;51.518;-3.188;2023-08-06T00:14:57;2;2;
60816;PMS5003;51921;51.518;-3.188;2023-08-06T00:17:23;2;2;
60816;PMS5003;51921;51.518;-3.188;2023-08-06T00:19:48;4;4;
60816;PMS5003;51921;51.518;-3.188;2023-08-06T00:22:13;1;1;
60816;PMS5003;51921;51.518;-3.188;2023-08-06T00:24:39;4;3;
60816;PMS5003;51921;51.518;-3.188;2023-08-06T00:27:05;3;2;
60816;PMS5003;51921;51.518;-3.188;2023-08-06T00:29:30;4;3;
60816;PMS5003;51921;51.518;-3.188;2023-08-06T00:31:55;4;3;
60816;PMS5003;51921;51.518;-3.188;2023-08-06T00:34:21;3;3;
60816;PMS5003;51921;51.518;-3.188;2023-08-06T00:36:46;2;2;
60816;PMS5003;51921;51.518;-3.188;2023-08-06T00:39:12;2;2;
60816;PMS5003;51921;51.518;-3.188;2023-08-06T00:41:37;3;3;
60816;PMS5003;51921;51.518;-3.188;2023-08-06T00:44:03;3;3;
60816;PMS5003;51921;51.518;-3.188;2023-08-06T00:46:28;3;3;
60816;PMS5003;51921;51.518;-3.188;2023-08-06T00:48:53;2;2;
60816;PMS5003;51921;51.518;-3.188;2023-08-06T00:51:19;3;3;
60816;PMS5003;51921;51.518;-3.188;2023-08-06T00:53:44;2;2;
60816;PMS5003;51921;51.518;-3.188;2023-08-06T00:56:10;3;3;
60816;PMS5003;51921;51.518;-3.188;2023-08-06T00:58:35;2;2;
60816;PMS5003;51921;51.518;-3.188;2023-08-06T01:01:01;2;2;
60816;PMS5003;51921;51.518;-3.188;2023-08-06T01:03:26;2;1;
60816;PMS5003;51921;51.518;-3.188;2023-08-06T01:05:52;2;2;
60816;PMS5003;51921;51.518;-3.188;2023-08-06T01:08:30;3;3;
60816;PMS5003;51921;51.518;-3.188;2023-08-06T01:10:46;5;5;
60816;PMS5003;51921;51.518;-3.188;2023-08-06T01:13:10;5;5;
60816;PMS5003;51921;51.518;-3.188;2023-08-06T01:15:35;4;4;
60816;PMS5003;51921;51.518;-3.188;2023-08-06T01:17:59;7;5;
60816;PMS5003;51921;51.518;-3.188;2023-08-06T01:20:27;5;5;
60816;PMS5003;51921;51.518;-3.188;2023-08-06T01:22:50;5;5;
60816;PMS5003;51921;51.518;-3.188;2023-08-06T01:25:15;7;7;
60816;PMS5003;51921;51.518;-3.188;2023-08-06T01:27:43;5;5;
60816;PMS5003;51921;51.518;-3.188;2023-08-06T01:30:07;5;5;
60816;PMS5003;51921;51.518;-3.188;2023-08-06T01:32:32;5;5;
60816;PMS5003;51921;51.518;-3.188;2023-08-06T01:34:57;6;5;
60816;PMS5003;51921;51.518;-3.188;2023-08-06T01:37:23;5;5;
60816;PMS5003;51921;51.518;-3.188;2023-08-06T01:39:48;6;5;
60816;PMS5003;51921;51.518;-3.188;2023-08-06T01:42:13;5;5;
60816;PMS5003;51921;51.518;-3.188;2023-08-06T01:44:39;6;5;
60816;PMS5003;51921;51.518;-3.188;2023-08-06T01:47:05;5;5;
60816;PMS5003;51921;51.518;-3.188;2023-08-06T01:49:29;5;4;
60816;PMS5003;51921;51.518;-3.188;2023-08-06T01:51:55;4;4;
60816;PMS5003;51921;51.518;-3.188;2023-08-06T01:54:20;6;5;
60816;PMS5003;51921;51.518;-3.188;2023-08-06T01:56:46;4;4;
60816;PMS5003;51921;51.518;-3.188;2023-08-06T01:59:11;6;4;
60816;PMS5003;51921;51.518;-3.188;2023-08-06T02:01:37;4;3;
60816;PMS5003;51921;51.518;-3.188;2023-08-06T02:04:02;4;4;
60816;PMS5003;51921;51.518;-3.188;2023-08-06T02:06:27;4;4;
60816;PMS5003;51921;51.518;-3.188;2023-08-06T02:08:53;5;5;
60816;PMS5003;51921;51.518;-3.188;2023-08-06T02:11:18;5;5;
60816;PMS5003;51921;51.518;-3.188;2023-08-06T02:13:44;3;3;
60816;PMS5003;51921;51.518;-3.188;2023-08-06T02:16:09;4;4;
60816;PMS5003;51921;51.518;-3.188;2023-08-06T02:18:34;5;4;
60816;PMS5003;51921;51.518;-3.188;2023-08-06T02:21:00;3;3;
60816;PMS5003;51921;51.518;-3.188;2023-08-06T02:23:26;4;4;
60816;PMS5003;51921;51.518;-3.188;2023-08-06T02:28:16;4;4;
60816;PMS5003;51921;51.518;-3.188;2023-08-06T02:33:07;7;6;
60816;PMS5003;51921;51.518;-3.188;2023-08-06T02:35:32;5;5;
60816;PMS5003;51921;51.518;-3.188;2023-08-06T02:37:58;4;3;
60816;PMS5003;51921;51.518;-3.188;2023-08-06T02:40:23;4;4;
60816;PMS5003;51921;51.518;-3.188;2023-08-06T02:42:49;2;2;
60816;PMS5003;51921;51.518;-3.188;2023-08-06T02:45:14;2;2;
60816;PMS5003;51921;51.518;-3.188;2023-08-06T02:47:40;3;3;
60816;PMS5003;51921;51.518;-3.188;2023-08-06T02:50:06;4;4;
60816;PMS5003;51921;51.518;-3.188;2023-08-06T02:52:31;3;3;
60816;PMS5003;51921;51.518;-3.188;2023-08-06T02:54:56;2;2;
60816;PMS5003;51921;51.518;-3.188;2023-08-06T02:57:21;6;5;
60816;PMS5003;51921;51.518;-3.188;2023-08-06T02:59:47;5;4;
60816;PMS5003;51921;51.518;-3.188;2023-08-06T03:02:12;4;3;
60816;PMS5003;51921;51.518;-3.188;2023-08-06T03:04:38;6;6;
60816;PMS5003;51921;51.518;-3.188;2023-08-06T03:07:03;4;4;
60816;PMS5003;51921;51.518;-3.188;2023-08-06T03:09:29;5;5;
60816;PMS5003;51921;51.518;-3.188;2023-08-06T03:11:54;2;2;
60816;PMS5003;51921;51.518;-3.188;2023-08-06T03:14:20;6;4;
60816;PMS5003;51921;51.518;-3.188;2023-08-06T03:16:45;6;5;
60816;PMS5003;51921;51.518;-3.188;2023-08-06T03:19:10;2;2;
60816;PMS5003;51921;51.518;-3.188;2023-08-06T03:21:36;6;5;
60816;PMS5003;51921;51.518;-3.188;2023-08-06T03:24:01;4;4;
60816;PMS5003;51921;51.518;-3.188;2023-08-06T03:26:27;5;4;
60816;PMS5003;51921;51.518;-3.188;2023-08-06T03:28:52;4;3;
60816;PMS5003;51921;51.518;-3.188;2023-08-06T03:31:18;3;2;
60816;PMS5003;51921;51.518;-3.188;2023-08-06T03:33:43;7;5;
60816;PMS5003;51921;51.518;-3.188;2023-08-06T03:36:09;4;4;
60816;PMS5003;51921;51.518;-3.188;2023-08-06T03:38:34;4;4;
60816;PMS5003;51921;51.518;-3.188;2023-08-06T03:41:00;6;5;
60816;PMS5003;51921;51.518;-3.188;2023-08-06T03:43:25;3;3;
60816;PMS5003;51921;51.518;-3.188;2023-08-06T03:45:51;6;5;
60816;PMS5003;51921;51.518;-3.188;2023-08-06T03:48:16;4;4;
60816;PMS5003;51921;51.518;-3.188;2023-08-06T03:50:42;5;4;
60816;PMS5003;51921;51.518;-3.188;2023-08-06T03:53:07;3;3;
60816;PMS5003;51921;51.518;-3.188;2023-08-06T03:55:32;5;5;
60816;PMS5003;51921;51.518;-3.188;2023-08-06T03:57:58;5;5;
60816;PMS5003;51921;51.518;-3.188;2023-08-06T04:00:23;4;4;
60816;PMS5003;51921;51.518;-3.188;2023-08-06T04:02:49;5;4;
60816;PMS5003;51921;51.518;-3.188;2023-08-06T04:05:14;4;4;
60816;PMS5003;51921;51.518;-3.188;2023-08-06T04:07:40;3;3;
60816;PMS5003;51921;51.518;-3.188;2023-08-06T04:10:05;6;5;
60816;PMS5003;51921;51.518;-3.188;2023-08-06T04:12:31;5;5;
60816;PMS5003;51921;51.518;-3.188;2023-08-06T04:14:57;7;5;
60816;PMS5003;51921;51.518;-3.188;2023-08-06T04:17:21;5;5;
60816;PMS5003;51921;51.518;-3.188;2023-08-06T04:19:47;5;5;
60816;PMS5003;51921;51.518;-3.188;2023-08-06T04:22:12;5;5;
60816;PMS5003;51921;51.518;-3.188;2023-08-06T04:24:38;4;4;
60816;PMS5003;51921;51.518;-3.188;2023-08-06T04:27:03;4;3;
60816;PMS5003;51921;51.518;-3.188;2023-08-06T04:29:29;6;6;
60816;PMS5003;51921;51.518;-3.188;2023-08-06T04:31:54;4;4;
60816;PMS5003;51921;51.518;-3.188;2023-08-06T04:34:19;4;4;
60816;PMS5003;51921;51.518;-3.188;2023-08-06T04:36:45;2;2;
60816;PMS5003;51921;51.518;-3.188;2023-08-06T04:39:10;3;3;
60816;PMS5003;51921;51.518;-3.188;2023-08-06T04:41:36;4;4;
60816;PMS5003;51921;51.518;-3.188;2023-08-06T04:44:01;3;3;
60816;PMS5003;51921;51.518;-3.188;2023-08-06T04:46:27;4;3;
60816;PMS5003;51921;51.518;-3.188;2023-08-06T04:48:52;4;4;
60816;PMS5003;51921;51.518;-3.188;2023-08-06T04:51:18;6;4;
60816;PMS5003;51921;51.518;-3.188;2023-08-06T04:53:43;4;3;
60816;PMS5003;51921;51.518;-3.188;2023-08-06T04:56:09;4;3;
60816;PMS5003;51921;51.518;-3.188;2023-08-06T04:58:34;6;4;
60816;PMS5003;51921;51.518;-3.188;2023-08-06T05:01:00;3;3;
60816;PMS5003;51921;51.518;-3.188;2023-08-06T05:03:25;4;4;
60816;PMS5003;51921;51.518;-3.188;2023-08-06T05:05:50;3;2;
60816;PMS5003;51921;51.518;-3.188;2023-08-06T05:08:16;4;4;
60816;PMS5003;51921;51.518;-3.188;2023-08-06T05:10:42;3;3;
60816;PMS5003;51921;51.518;-3.188;2023-08-06T05:13:07;4;4;
60816;PMS5003;51921;51.518;-3.188;2023-08-06T05:15:32;5;4;
60816;PMS5003;51921;51.518;-3.188;2023-08-06T05:17:58;5;4;
60816;PMS5003;51921;51.518;-3.188;2023-08-06T05:20:23;4;4;
60816;PMS5003;51921;51.518;-3.188;2023-08-06T05:22:49;5;3;
60816;PMS5003;51921;51.518;-3.188;2023-08-06T05:25:14;4;4;
60816;PMS5003;51921;51.518;-3.188;2023-08-06T05:27:40;4;4;
60816;PMS5003;51921;51.518;-3.188;2023-08-06T05:30:06;2;2;
60816;PMS5003;51921;51.518;-3.188;2023-08-06T05:32:31;5;5;
60816;PMS5003;51921;51.518;-3.188;2023-08-06T05:34:56;4;4;
60816;PMS5003;51921;51.518;-3.188;2023-08-06T05:37:22;5;5;
60816;PMS5003;51921;51.518;-3.188;2023-08-06T05:39:47;4;4;
60816;PMS5003;51921;51.518;-3.188;2023-08-06T05:42:13;4;4;
60816;PMS5003;51921;51.518;-3.188;2023-08-06T05:44:38;3;3;
60816;PMS5003;51921;51.518;-3.188;2023-08-06T05:47:04;4;4;
60816;PMS5003;51921;51.518;-3.188;2023-08-06T05:49:29;4;3;
60816;PMS5003;51921;51.518;-3.188;2023-08-06T05:51:55;3;3;
60816;PMS5003;51921;51.518;-3.188;2023-08-06T05:54:20;3;2;
60816;PMS5003;51921;51.518;-3.188;2023-08-06T05:56:46;4;4;
60816;PMS5003;51921;51.518;-3.188;2023-08-06T05:59:11;3;3;
60816;PMS5003;51921;51.518;-3.188;2023-08-06T06:01:37;5;4;
60816;PMS5003;51921;51.518;-3.188;2023-08-06T06:04:02;3;3;
60816;PMS5003;51921;51.518;-3.188;2023-08-06T06:06:27;4;3;
60816;PMS5003;51921;51.518;-3.188;2023-08-06T06:08:53;2;2;
60816;PMS5003;51921;51.518;-3.188;2023-08-06T06:11:18;3;3;
60816;PMS5003;51921;51.518;-3.188;2023-08-06T06:13:44;5;4;
60816;PMS5003;51921;51.518;-3.188;2023-08-06T06:16:09;4;3;
60816;PMS5003;51921;51.518;-3.188;2023-08-06T06:18:35;4;4;
60816;PMS5003;51921;51.518;-3.188;2023-08-06T06:21:00;6;6;
60816;PMS5003;51921;51.518;-3.188;2023-08-06T06:23:26;5;5;
60816;PMS5003;51921;51.518;-3.188;2023-08-06T06:25:51;3;3;
60816;PMS5003;51921;51.518;-3.188;2023-08-06T06:28:17;6;5;
60816;PMS5003;51921;51.518;-3.188;2023-08-06T06:30:42;4;4;
60816;PMS5003;51921;51.518;-3.188;2023-08-06T06:33:08;4;4;
60816;PMS5003;51921;51.518;-3.188;2023-08-06T06:35:33;3;3;
60816;PMS5003;51921;51.518;-3.188;2023-08-06T06:37:59;3;3;
60816;PMS5003;51921;51.518;-3.188;2023-08-06T06:40:24;4;4;
60816;PMS5003;51921;51.518;-3.188;2023-08-06T06:42:50;4;3;
60816;PMS5003;51921;51.518;-3.188;2023-08-06T06:45:15;3;3;
60816;PMS5003;51921;51.518;-3.188;2023-08-06T06:47:40;3;3;
60816;PMS5003;51921;51.518;-3.188;2023-08-06T06:50:06;3;2;
60816;PMS5003;51921;51.518;-3.188;2023-08-06T06:52:31;3;2;
60816;PMS5003;51921;51.518;-3.188;2023-08-06T06:54:57;2;2;
60816;PMS5003;51921;51.518;-3.188;2023-08-06T06:57:22;3;3;
60816;PMS5003;51921;51.518;-3.188;2023-08-06T06:59:48;2;2;
60816;PMS5003;51921;51.518;-3.188;2023-08-06T07:02:13;4;4;
60816;PMS5003;51921;51.518;-3.188;2023-08-06T07:04:39;2;2;
60816;PMS5003;51921;51.518;-3.188;2023-08-06T07:07:04;3;2;
60816;PMS5003;51921;51.518;-3.188;2023-08-06T07:09:29;2;2;
60816;PMS5003;51921;51.518;-3.188;2023-08-06T07:11:55;2;2;
60816;PMS5003;51921;51.518;-3.188;2023-08-06T07:14:20;3;3;
60816;PMS5003;51921;51.518;-3.188;2023-08-06T07:16:46;1;1;
60816;PMS5003;51921;51.518;-3.188;2023-08-06T07:19:11;2;2;
60816;PMS5003;51921;51.518;-3.188;2023-08-06T07:21:37;2;2;
60816;PMS5003;51921;51.518;-3.188;2023-08-06T07:24:02;1;1;
60816;PMS5003;51921;51.518;-3.188;2023-08-06T07:26:27;3;1;
60816;PMS5003;51921;51.518;-3.188;2023-08-06T07:28:53;2;2;
60816;PMS5003;51921;51.518;-3.188;2023-08-06T07:31:18;3;1;
60816;PMS5003;51921;51.518;-3.188;2023-08-06T07:33:44;0;0;
60816;PMS5003;51921;51.518;-3.188;2023-08-06T07:36:10;1;1;
60816;PMS5003;51921;51.518;-3.188;2023-08-06T07:38:35;0;0;
60816;PMS5003;51921;51.518;-3.188;2023-08-06T07:41:01;0;0;
60816;PMS5003;51921;51.518;-3.188;2023-08-06T07:43:25;1;1;
60816;PMS5003;51921;51.518;-3.188;2023-08-06T07:45:51;0;0;
60816;PMS5003;51921;51.518;-3.188;2023-08-06T07:48:16;1;1;
60816;PMS5003;51921;51.518;-3.188;2023-08-06T07:50:41;0;0;
60816;PMS5003;51921;51.518;-3.188;2023-08-06T07:53:07;2;1;
60816;PMS5003;51921;51.518;-3.188;2023-08-06T07:55:32;1;1;
60816;PMS5003;51921;51.518;-3.188;2023-08-06T07:57:57;1;1;
60816;PMS5003;51921;51.518;-3.188;2023-08-06T08:00:23;1;1;
60816;PMS5003;51921;51.518;-3.188;2023-08-06T08:02:48;0;0;
60816;PMS5003;51921;51.518;-3.188;2023-08-06T08:05:13;0;0;
60816;PMS5003;51921;51.518;-3.188;2023-08-06T08:07:39;1;1;
60816;PMS5003;51921;51.518;-3.188;2023-08-06T08:10:04;1;1;
60816;PMS5003;51921;51.518;-3.188;2023-08-06T08:12:29;1;1;
60816;PMS5003;51921;51.518;-3.188;2023-08-06T08:14:55;2;1;
60816;PMS5003;51921;51.518;-3.188;2023-08-06T08:17:20;1;1;
60816;PMS5003;51921;51.518;-3.188;2023-08-06T08:19:45;1;1;
60816;PMS5003;51921;51.518;-3.188;2023-08-06T08:22:11;0;0;
60816;PMS5003;51921;51.518;-3.188;2023-08-06T08:24:36;2;1;
60816;PMS5003;51921;51.518;-3.188;2023-08-06T08:27:01;2;1;
60816;PMS5003;51921;51.518;-3.188;2023-08-06T08:29:27;0;0;
60816;PMS5003;51921;51.518;-3.188;2023-08-06T08:31:52;0;0;
60816;PMS5003;51921;51.518;-3.188;2023-08-06T08:34:17;0;0;
60816;PMS5003;51921;51.518;-3.188;2023-08-06T08:36:43;1;1;
60816;PMS5003;51921;51.518;-3.188;2023-08-06T08:39:08;1;0;
60816;PMS5003;51921;51.518;-3.188;2023-08-06T08:41:33;1;1;
60816;PMS5003;51921;51.518;-3.188;2023-08-06T08:43:59;1;1;
60816;PMS5003;51921;51.518;-3.188;2023-08-06T08:46:24;1;1;
60816;PMS5003;51921;51.518;-3.188;2023-08-06T08:48:49;1;1;
60816;PMS5003;51921;51.518;-3.188;2023-08-06T08:51:15;2;1;
60816;PMS5003;51921;51.518;-3.188;2023-08-06T08:53:40;1;1;
60816;PMS5003;51921;51.518;-3.188;2023-08-06T08:56:05;1;1;
60816;PMS5003;51921;51.518;-3.188;2023-08-06T08:58:31;1;0;
60816;PMS5003;51921;51.518;-3.188;2023-08-06T09:00:56;1;1;
60816;PMS5003;51921;51.518;-3.188;2023-08-06T09:03:21;0;0;
60816;PMS5003;51921;51.518;-3.188;2023-08-06T09:05:48;1;1;
60816;PMS5003;51921;51.518;-3.188;2023-08-06T09:08:14;0;0;
60816;PMS5003;51921;51.518;-3.188;2023-08-06T09:10:37;0;0;
60816;PMS5003;51921;51.518;-3.188;2023-08-06T09:13:03;1;1;
60816;PMS5003;51921;51.518;-3.188;2023-08-06T09:15:28;1;1;
60816;PMS5003;51921;51.518;-3.188;2023-08-06T09:17:53;0;0;
60816;PMS5003;51921;51.518;-3.188;2023-08-06T09:20:19;1;0;
60816;PMS5003;51921;51.518;-3.188;2023-08-06T09:22:44;0;0;
60816;PMS5003;51921;51.518;-3.188;2023-08-06T09:25:09;2;2;
60816;PMS5003;51921;51.518;-3.188;2023-08-06T09:27:35;0;0;
60816;PMS5003;51921;51.518;-3.188;2023-08-06T09:30:00;1;0;
60816;PMS5003;51921;51.518;-3.188;2023-08-06T09:32:25;1;1;
60816;PMS5003;51921;51.518;-3.188;2023-08-06T09:34:55;1;1;
60816;PMS5003;51921;51.518;-3.188;2023-08-06T09:37:16;1;1;
60816;PMS5003;51921;51.518;-3.188;2023-08-06T09:39:41;1;1;
60816;PMS5003;51921;51.518;-3.188;2023-08-06T09:42:07;1;1;
60816;PMS5003;51921;51.518;-3.188;2023-08-06T09:44:32;0;0;
60816;PMS5003;51921;51.518;-3.188;2023-08-06T09:46:58;1;1;
60816;PMS5003;51921;51.518;-3.188;2023-08-06T09:49:25;1;1;
60816;PMS5003;51921;51.518;-3.188;2023-08-06T09:51:48;1;0;
60816;PMS5003;51921;51.518;-3.188;2023-08-06T09:54:13;0;0;
60816;PMS5003;51921;51.518;-3.188;2023-08-06T09:56:39;1;1;
60816;PMS5003;51921;51.518;-3.188;2023-08-06T09:59:04;0;0;
60816;PMS5003;51921;51.518;-3.188;2023-08-06T10:01:30;1;1;
60816;PMS5003;51921;51.518;-3.188;2023-08-06T10:03:55;0;0;
60816;PMS5003;51921;51.518;-3.188;2023-08-06T10:06:20;1;1;
60816;PMS5003;51921;51.518;-3.188;2023-08-06T10:08:46;0;0;
60816;PMS5003;51921;51.518;-3.188;2023-08-06T10:11:11;1;1;
60816;PMS5003;51921;51.518;-3.188;2023-08-06T10:13:36;0;0;
60816;PMS5003;51921;51.518;-3.188;2023-08-06T10:16:02;0;0;
60816;PMS5003;51921;51.518;-3.188;2023-08-06T10:18:27;1;1;
60816;PMS5003;51921;51.518;-3.188;2023-08-06T10:20:53;0;0;
60816;PMS5003;51921;51.518;-3.188;2023-08-06T10:23:18;0;0;
60816;PMS5003;51921;51.518;-3.188;2023-08-06T10:25:43;0;0;
60816;PMS5003;51921;51.518;-3.188;2023-08-06T10:28:09;1;1;
60816;PMS5003;51921;51.518;-3.188;2023-08-06T10:30:34;0;0;
60816;PMS5003;51921;51.518;-3.188;2023-08-06T10:33:00;0;0;
60816;PMS5003;51921;51.518;-3.188;2023-08-06T10:35:28;1;0;
60816;PMS5003;51921;51.518;-3.188;2023-08-06T10:37:50;0;0;
60816;PMS5003;51921;51.518;-3.188;2023-08-06T10:40:15;1;1;
60816;PMS5003;51921;51.518;-3.188;2023-08-06T10:42:41;1;1;
60816;PMS5003;51921;51.518;-3.188;2023-08-06T10:45:11;2;2;
60816;PMS5003;51921;51.518;-3.188;2023-08-06T10:47:33;1;1;
60816;PMS5003;51921;51.518;-3.188;2023-08-06T10:49:57;1;1;
60816;PMS5003;51921;51.518;-3.188;2023-08-06T10:52:23;1;1;
60816;PMS5003;51921;51.518;-3.188;2023-08-06T10:54:47;1;1;
60816;PMS5003;51921;51.518;-3.188;2023-08-06T10:57:13;1;1;
60816;PMS5003;51921;51.518;-3.188;2023-08-06T10:59:38;0;0;
60816;PMS5003;51921;51.518;-3.188;2023-08-06T11:02:03;0;0;
60816;PMS5003;51921;51.518;-3.188;2023-08-06T11:04:30;1;1;
60816;PMS5003;51921;51.518;-3.188;2023-08-06T11:06:54;0;0;
60816;PMS5003;51921;51.518;-3.188;2023-08-06T11:09:19;0;0;
60816;PMS5003;51921;51.518;-3.188;2023-08-06T11:11:45;1;1;
60816;PMS5003;51921;51.518;-3.188;2023-08-06T11:14:14;3;1;
60816;PMS5003;51921;51.518;-3.188;2023-08-06T11:16:35;1;1;
60816;PMS5003;51921;51.518;-3.188;2023-08-06T11:19:01;1;1;
60816;PMS5003;51921;51.518;-3.188;2023-08-06T11:21:26;1;0;
60816;PMS5003;51921;51.518;-3.188;2023-08-06T11:23:52;1;1;
60816;PMS5003;51921;51.518;-3.188;2023-08-06T11:26:18;1;1;
60816;PMS5003;51921;51.518;-3.188;2023-08-06T11:28:42;1;1;
60816;PMS5003;51921;51.518;-3.188;2023-08-06T11:33:33;1;1;
60816;PMS5003;51921;51.518;-3.188;2023-08-06T11:35:59;5;5;
60816;PMS5003;51921;51.518;-3.188;2023-08-06T11:38:24;1;1;
60816;PMS5003;51921;51.518;-3.188;2023-08-06T11:40:49;0;0;
60816;PMS5003;51921;51.518;-3.188;2023-08-06T11:43:14;1;1;
60816;PMS5003;51921;51.518;-3.188;2023-08-06T11:45:40;1;1;
60816;PMS5003;51921;51.518;-3.188;2023-08-06T11:48:05;1;1;
60816;PMS5003;51921;51.518;-3.188;2023-08-06T11:50:30;1;1;
60816;PMS5003;51921;51.518;-3.188;2023-08-06T11:52:56;1;1;
60816;PMS5003;51921;51.518;-3.188;2023-08-06T11:55:22;0;0;
60816;PMS5003;51921;51.518;-3.188;2023-08-06T11:57:46;1;1;
60816;PMS5003;51921;51.518;-3.188;2023-08-06T12:00:13;0;0;
60816;PMS5003;51921;51.518;-3.188;2023-08-06T12:02:38;1;1;
60816;PMS5003;51921;51.518;-3.188;2023-08-06T12:05:03;1;1;
60816;PMS5003;51921;51.518;-3.188;2023-08-06T12:07:28;0;0;
60816;PMS5003;51921;51.518;-3.188;2023-08-06T12:09:53;1;1;
60816;PMS5003;51921;51.518;-3.188;2023-08-06T12:12:18;1;1;
60816;PMS5003;51921;51.518;-3.188;2023-08-06T12:14:44;0;0;
60816;PMS5003;51921;51.518;-3.188;2023-08-06T12:17:09;0;0;
60816;PMS5003;51921;51.518;-3.188;2023-08-06T12:19:34;0;0;
60816;PMS5003;51921;51.518;-3.188;2023-08-06T12:22:00;1;1;
60816;PMS5003;51921;51.518;-3.188;2023-08-06T12:24:25;0;0;
60816;PMS5003;51921;51.518;-3.188;2023-08-06T12:26:50;0;0;
60816;PMS5003;51921;51.518;-3.188;2023-08-06T12:29:16;0;0;
60816;PMS5003;51921;51.518;-3.188;2023-08-06T12:31:41;1;1;
60816;PMS5003;51921;51.518;-3.188;2023-08-06T12:34:07;0;0;
60816;PMS5003;51921;51.518;-3.188;2023-08-06T12:36:32;0;0;
60816;PMS5003;51921;51.518;-3.188;2023-08-06T12:38:57;1;1;
60816;PMS5003;51921;51.518;-3.188;2023-08-06T12:41:23;1;1;
60816;PMS5003;51921;51.518;-3.188;2023-08-06T12:43:48;1;1;
60816;PMS5003;51921;51.518;-3.188;2023-08-06T12:46:13;1;1;
60816;PMS5003;51921;51.518;-3.188;2023-08-06T12:48:39;1;0;
60816;PMS5003;51921;51.518;-3.188;2023-08-06T12:51:04;0;0;
60816;PMS5003;51921;51.518;-3.188;2023-08-06T12:53:29;1;1;
60816;PMS5003;51921;51.518;-3.188;2023-08-06T12:55:55;0;0;
60816;PMS5003;51921;51.518;-3.188;2023-08-06T12:58:20;1;1;
60816;PMS5003;51921;51.518;-3.188;2023-08-06T13:00:45;0;0;
60816;PMS5003;51921;51.518;-3.188;2023-08-06T13:03:11;1;1;
60816;PMS5003;51921;51.518;-3.188;2023-08-06T13:05:36;1;1;
60816;PMS5003;51921;51.518;-3.188;2023-08-06T13:08:01;1;1;
60816;PMS5003;51921;51.518;-3.188;2023-08-06T13:10:27;1;1;
60816;PMS5003;51921;51.518;-3.188;2023-08-06T13:12:52;3;1;
60816;PMS5003;51921;51.518;-3.188;2023-08-06T13:15:17;2;2;
60816;PMS5003;51921;51.518;-3.188;2023-08-06T13:17:43;2;2;
60816;PMS5003;51921;51.518;-3.188;2023-08-06T13:20:08;2;2;
60816;PMS5003;51921;51.518;-3.188;2023-08-06T13:22:33;0;0;
60816;PMS5003;51921;51.518;-3.188;2023-08-06T13:24:59;1;1;
60816;PMS5003;51921;51.518;-3.188;2023-08-06T13:27:24;0;0;
60816;PMS5003;51921;51.518;-3.188;2023-08-06T13:29:49;1;0;
60816;PMS5003;51921;51.518;-3.188;2023-08-06T13:32:15;1;1;
60816;PMS5003;51921;51.518;-3.188;2023-08-06T13:34:40;2;2;
60816;PMS5003;51921;51.518;-3.188;2023-08-06T13:37:05;3;3;
60816;PMS5003;51921;51.518;-3.188;2023-08-06T13:39:31;1;1;
60816;PMS5003;51921;51.518;-3.188;2023-08-06T13:41:56;1;1;
60816;PMS5003;51921;51.518;-3.188;2023-08-06T13:44:21;1;1;
60816;PMS5003;51921;51.518;-3.188;2023-08-06T13:46:47;3;1;
60816;PMS5003;51921;51.518;-3.188;2023-08-06T13:49:12;0;0;
60816;PMS5003;51921;51.518;-3.188;2023-08-06T13:51:37;1;1;
60816;PMS5003;51921;51.518;-3.188;2023-08-06T13:54:03;0;0;
60816;PMS5003;51921;51.518;-3.188;2023-08-06T13:56:28;1;1;
60816;PMS5003;51921;51.518;-3.188;2023-08-06T13:58:53;1;1;
60816;PMS5003;51921;51.518;-3.188;2023-08-06T14:01:19;1;1;
60816;PMS5003;51921;51.518;-3.188;2023-08-06T14:03:44;1;1;
60816;PMS5003;51921;51.518;-3.188;2023-08-06T14:06:09;1;1;
60816;PMS5003;51921;51.518;-3.188;2023-08-06T14:08:35;0;0;
60816;PMS5003;51921;51.518;-3.188;2023-08-06T14:11:00;0;0;
60816;PMS5003;51921;51.518;-3.188;2023-08-06T14:13:25;1;0;
60816;PMS5003;51921;51.518;-3.188;2023-08-06T14:15:51;1;1;
60816;PMS5003;51921;51.518;-3.188;2023-08-06T14:18:16;1;1;
60816;PMS5003;51921;51.518;-3.188;2023-08-06T14:20:41;0;0;
60816;PMS5003;51921;51.518;-3.188;2023-08-06T14:23:06;0;0;
60816;PMS5003;51921;51.518;-3.188;2023-08-06T14:25:32;0;0;
60816;PMS5003;51921;51.518;-3.188;2023-08-06T14:27:57;1;0;
60816;PMS5003;51921;51.518;-3.188;2023-08-06T14:30:22;0;0;
60816;PMS5003;51921;51.518;-3.188;2023-08-06T14:32:48;1;1;
60816;PMS5003;51921;51.518;-3.188;2023-08-06T14:35:13;2;1;
60816;PMS5003;51921;51.518;-3.188;2023-08-06T14:37:39;1;1;
60816;PMS5003;51921;51.518;-3.188;2023-08-06T14:40:05;2;2;
60816;PMS5003;51921;51.518;-3.188;2023-08-06T14:42:30;1;1;
60816;PMS5003;51921;51.518;-3.188;2023-08-06T14:44:55;1;1;
60816;PMS5003;51921;51.518;-3.188;2023-08-06T14:47:20;0;0;
60816;PMS5003;51921;51.518;-3.188;2023-08-06T14:49:46;0;0;
60816;PMS5003;51921;51.518;-3.188;2023-08-06T14:52:11;0;0;
60816;PMS5003;51921;51.518;-3.188;2023-08-06T14:54:36;2;2;
60816;PMS5003;51921;51.518;-3.188;2023-08-06T14:57:02;1;1;
60816;PMS5003;51921;51.518;-3.188;2023-08-06T14:59:27;2;2;
60816;PMS5003;51921;51.518;-3.188;2023-08-06T15:01:52;1;1;
60816;PMS5003;51921;51.518;-3.188;2023-08-06T15:04:18;1;1;
60816;PMS5003;51921;51.518;-3.188;2023-08-06T15:06:43;1;0;
60816;PMS5003;51921;51.518;-3.188;2023-08-06T15:09:08;0;0;
60816;PMS5003;51921;51.518;-3.188;2023-08-06T15:11:34;3;3;
60816;PMS5003;51921;51.518;-3.188;2023-08-06T15:13:59;2;2;
60816;PMS5003;51921;51.518;-3.188;2023-08-06T15:16:25;0;0;
60816;PMS5003;51921;51.518;-3.188;2023-08-06T15:18:50;1;1;
60816;PMS5003;51921;51.518;-3.188;2023-08-06T15:21:15;2;1;
60816;PMS5003;51921;51.518;-3.188;2023-08-06T15:23:41;1;1;
60816;PMS5003;51921;51.518;-3.188;2023-08-06T15:26:06;1;0;
60816;PMS5003;51921;51.518;-3.188;2023-08-06T15:28:31;1;1;
60816;PMS5003;51921;51.518;-3.188;2023-08-06T15:30:57;1;1;
60816;PMS5003;51921;51.518;-3.188;2023-08-06T15:33:22;2;2;
60816;PMS5003;51921;51.518;-3.188;2023-08-06T15:35:47;2;2;
60816;PMS5003;51921;51.518;-3.188;2023-08-06T15:38:13;2;1;
60816;PMS5003;51921;51.518;-3.188;2023-08-06T15:40:38;2;1;
60816;PMS5003;51921;51.518;-3.188;2023-08-06T15:43:03;1;1;
60816;PMS5003;51921;51.518;-3.188;2023-08-06T15:45:29;3;2;
60816;PMS5003;51921;51.518;-3.188;2023-08-06T15:47:54;2;2;
60816;PMS5003;51921;51.518;-3.188;2023-08-06T15:50:19;2;0;
60816;PMS5003;51921;51.518;-3.188;2023-08-06T15:52:45;4;3;
60816;PMS5003;51921;51.518;-3.188;2023-08-06T15:55:10;4;4;
60816;PMS5003;51921;51.518;-3.188;2023-08-06T15:57:36;1;0;
60816;PMS5003;51921;51.518;-3.188;2023-08-06T16:00:02;2;2;
60816;PMS5003;51921;51.518;-3.188;2023-08-06T16:02:27;3;3;
60816;PMS5003;51921;51.518;-3.188;2023-08-06T16:04:52;4;2;
60816;PMS5003;51921;51.518;-3.188;2023-08-06T16:07:17;1;1;
60816;PMS5003;51921;51.518;-3.188;2023-08-06T16:09:43;1;1;
60816;PMS5003;51921;51.518;-3.188;2023-08-06T16:12:08;1;1;
60816;PMS5003;51921;51.518;-3.188;2023-08-06T16:14:35;1;1;
60816;PMS5003;51921;51.518;-3.188;2023-08-06T16:16:59;1;1;
60816;PMS5003;51921;51.518;-3.188;2023-08-06T16:19:24;1;1;
60816;PMS5003;51921;51.518;-3.188;2023-08-06T16:21:49;2;2;
60816;PMS5003;51921;51.518;-3.188;2023-08-06T16:24:15;3;3;
60816;PMS5003;51921;51.518;-3.188;2023-08-06T16:26:40;3;3;